sensor_id;sensor_type;location;lat;lon;timestamp;temperature;humidity
44170;DHT22;29836;52.286;9.576;2023-05-10T00:01:25;11.70;98.70
44170;DHT22;29836;52.286;9.576;2023-05-10T00:03:50;11.70;98.40
44170;DHT22;29836;52.286;9.576;2023-05-10T00:06:16;11.80;98.20
44170;DHT22;29836;52.286;9.576;2023-05-10T00:08:41;11.80;99.00
44170;DHT22;29836;52.286;9.576;2023-05-10T00:11:07;11.60;99.30
44170;DHT22;29836;52.286;9.576;2023-05-10T00:13:32;11.60;99.90
44170;DHT22;29836;52.286;9.576;2023-05-10T00:15:58;11.50;99.90
44170;DHT22;29836;52.286;9.576;2023-05-10T00:18:24;11.50;99.40
44170;DHT22;29836;52.286;9.576;2023-05-10T00:20:49;11.40;99.90
44170;DHT22;29836;52.286;9.576;2023-05-10T00:23:15;11.40;99.90
44170;DHT22;29836;52.286;9.576;2023-05-10T00:25:40;11.50;99.50
44170;DHT22;29836;52.286;9.576;2023-05-10T00:28:06;11.50;99.90
44170;DHT22;29836;52.286;9.576;2023-05-10T00:30:31;11.50;99.90
44170;DHT22;29836;52.286;9.576;2023-05-10T00:32:57;11.60;98.90
44170;DHT22;29836;52.286;9.576;2023-05-10T00:35:22;11.70;98.60
44170;DHT22;29836;52.286;9.576;2023-05-10T00:37:48;11.70;98.70
44170;DHT22;29836;52.286;9.576;2023-05-10T00:40:14;11.70;98.80
44170;DHT22;29836;52.286;9.576;2023-05-10T00:42:39;11.70;98.60
44170;DHT22;29836;52.286;9.576;2023-05-10T00:45:06;11.70;98.60
44170;DHT22;29836;52.286;9.576;2023-05-10T00:47:32;11.60;98.80
44170;DHT22;29836;52.286;9.576;2023-05-10T00:49:58;11.60;99.40
44170;DHT22;29836;52.286;9.576;2023-05-10T00:52:24;11.60;99.50
44170;DHT22;29836;52.286;9.576;2023-05-10T00:54:52;11.70;98.30
44170;DHT22;29836;52.286;9.576;2023-05-10T00:57:18;11.80;98.30
44170;DHT22;29836;52.286;9.576;2023-05-10T00:59:43;11.80;98.20
44170;DHT22;29836;52.286;9.576;2023-05-10T01:02:09;11.90;98.40
44170;DHT22;29836;52.286;9.576;2023-05-10T01:04:35;11.80;98.90
44170;DHT22;29836;52.286;9.576;2023-05-10T01:07:00;11.80;98.80
44170;DHT22;29836;52.286;9.576;2023-05-10T01:09:26;11.70;98.90
44170;DHT22;29836;52.286;9.576;2023-05-10T01:11:53;11.70;98.70
44170;DHT22;29836;52.286;9.576;2023-05-10T01:14:19;11.90;98.10
44170;DHT22;29836;52.286;9.576;2023-05-10T01:16:45;11.80;98.40
44170;DHT22;29836;52.286;9.576;2023-05-10T01:19:24;11.70;98.80
44170;DHT22;29836;52.286;9.576;2023-05-10T01:22:05;11.90;98.60
44170;DHT22;29836;52.286;9.576;2023-05-10T01:35:19;11.90;99.50
44170;DHT22;29836;52.286;9.576;2023-05-10T01:38:17;11.70;99.90
44170;DHT22;29836;52.286;9.576;2023-05-10T01:43:26;11.60;99.90
44170;DHT22;29836;52.286;9.576;2023-05-10T01:46:03;11.50;99.90
44170;DHT22;29836;52.286;9.576;2023-05-10T01:48:45;11.70;99.80
44170;DHT22;29836;52.286;9.576;2023-05-10T01:51:15;11.70;99.80
44170;DHT22;29836;52.286;9.576;2023-05-10T01:53:43;11.80;99.70
44170;DHT22;29836;52.286;9.576;2023-05-10T01:56:11;11.90;99.30
44170;DHT22;29836;52.286;9.576;2023-05-10T01:58:39;12.10;98.80
44170;DHT22;29836;52.286;9.576;2023-05-10T02:01:08;12.20;98.60
44170;DHT22;29836;52.286;9.576;2023-05-10T02:03:35;12.30;98.90
44170;DHT22;29836;52.286;9.576;2023-05-10T02:06:02;12.30;98.70
44170;DHT22;29836;52.286;9.576;2023-05-10T02:08:29;12.30;98.80
44170;DHT22;29836;52.286;9.576;2023-05-10T02:10:56;12.30;99.00
44170;DHT22;29836;52.286;9.576;2023-05-10T02:13:24;12.30;98.60
44170;DHT22;29836;52.286;9.576;2023-05-10T02:15:51;12.30;98.80
44170;DHT22;29836;52.286;9.576;2023-05-10T02:18:18;12.20;99.10
44170;DHT22;29836;52.286;9.576;2023-05-10T02:20:45;12.20;99.20
44170;DHT22;29836;52.286;9.576;2023-05-10T02:23:11;12.20;99.20
44170;DHT22;29836;52.286;9.576;2023-05-10T02:25:37;12.20;99.60
44170;DHT22;29836;52.286;9.576;2023-05-10T02:28:05;12.20;99.80
44170;DHT22;29836;52.286;9.576;2023-05-10T02:30:33;12.20;99.80
44170;DHT22;29836;52.286;9.576;2023-05-10T02:32:59;12.10;99.90
44170;DHT22;29836;52.286;9.576;2023-05-10T02:35:26;11.90;99.90
44170;DHT22;29836;52.286;9.576;2023-05-10T02:37:52;11.80;99.90
44170;DHT22;29836;52.286;9.576;2023-05-10T02:40:19;11.60;99.90
44170;DHT22;29836;52.286;9.576;2023-05-10T02:42:47;11.50;99.90
44170;DHT22;29836;52.286;9.576;2023-05-10T02:45:17;11.40;99.90
44170;DHT22;29836;52.286;9.576;2023-05-10T02:47:43;11.20;99.90
44170;DHT22;29836;52.286;9.576;2023-05-10T02:50:09;11.00;99.90
44170;DHT22;29836;52.286;9.576;2023-05-10T02:52:40;10.90;99.90
44170;DHT22;29836;52.286;9.576;2023-05-10T02:55:09;10.90;99.90
44170;DHT22;29836;52.286;9.576;2023-05-10T02:57:40;11.00;99.90
44170;DHT22;29836;52.286;9.576;2023-05-10T03:00:07;11.00;99.90
44170;DHT22;29836;52.286;9.576;2023-05-10T03:02:33;11.00;99.90
44170;DHT22;29836;52.286;9.576;2023-05-10T03:04:59;11.00;99.90
44170;DHT22;29836;52.286;9.576;2023-05-10T03:07:24;11.00;99.90
44170;DHT22;29836;52.286;9.576;2023-05-10T03:09:50;11.10;99.90
44170;DHT22;29836;52.286;9.576;2023-05-10T03:13:10;11.20;99.90
44170;DHT22;29836;52.286;9.576;2023-05-10T03:15:44;11.20;99.90
44170;DHT22;29836;52.286;9.576;2023-05-10T03:18:23;11.20;99.90
44170;DHT22;29836;52.286;9.576;2023-05-10T03:20:59;11.10;99.90
44170;DHT22;29836;52.286;9.576;2023-05-10T03:23:30;11.10;99.90
44170;DHT22;29836;52.286;9.576;2023-05-10T03:25:59;11.20;99.90
44170;DHT22;29836;52.286;9.576;2023-05-10T03:28:26;11.30;99.90
44170;DHT22;29836;52.286;9.576;2023-05-10T03:30:53;11.50;99.90
44170;DHT22;29836;52.286;9.576;2023-05-10T03:33:19;11.50;99.90
44170;DHT22;29836;52.286;9.576;2023-05-10T03:35:45;11.60;99.90
44170;DHT22;29836;52.286;9.576;2023-05-10T03:38:14;11.60;99.90
44170;DHT22;29836;52.286;9.576;2023-05-10T03:40:40;11.60;99.90
44170;DHT22;29836;52.286;9.576;2023-05-10T03:43:05;11.60;99.90
44170;DHT22;29836;52.286;9.576;2023-05-10T03:45:31;11.60;99.90
44170;DHT22;29836;52.286;9.576;2023-05-10T03:47:57;11.70;99.90
44170;DHT22;29836;52.286;9.576;2023-05-10T03:50:23;11.70;99.90
44170;DHT22;29836;52.286;9.576;2023-05-10T03:52:49;11.90;99.90
44170;DHT22;29836;52.286;9.576;2023-05-10T03:55:15;12.00;99.90
44170;DHT22;29836;52.286;9.576;2023-05-10T03:57:41;12.00;99.90
44170;DHT22;29836;52.286;9.576;2023-05-10T04:00:07;11.90;99.90
44170;DHT22;29836;52.286;9.576;2023-05-10T04:02:33;11.80;99.90
44170;DHT22;29836;52.286;9.576;2023-05-10T04:04:58;11.60;99.90
44170;DHT22;29836;52.286;9.576;2023-05-10T04:07:24;11.40;99.90
44170;DHT22;29836;52.286;9.576;2023-05-10T04:09:49;11.30;99.90
44170;DHT22;29836;52.286;9.576;2023-05-10T04:12:15;11.20;99.90
44170;DHT22;29836;52.286;9.576;2023-05-10T04:14:40;11.20;99.90
44170;DHT22;29836;52.286;9.576;2023-05-10T04:17:06;11.30;99.90
44170;DHT22;29836;52.286;9.576;2023-05-10T04:19:32;11.40;99.90
44170;DHT22;29836;52.286;9.576;2023-05-10T04:21:58;11.30;99.90
44170;DHT22;29836;52.286;9.576;2023-05-10T04:24:24;11.20;99.90
44170;DHT22;29836;52.286;9.576;2023-05-10T04:26:50;11.00;99.90
44170;DHT22;29836;52.286;9.576;2023-05-10T04:29:16;11.00;99.90
44170;DHT22;29836;52.286;9.576;2023-05-10T04:31:41;10.90;99.90
44170;DHT22;29836;52.286;9.576;2023-05-10T04:34:07;10.80;99.90
44170;DHT22;29836;52.286;9.576;2023-05-10T04:36:32;10.80;99.90
44170;DHT22;29836;52.286;9.576;2023-05-10T04:39:00;10.80;99.90
44170;DHT22;29836;52.286;9.576;2023-05-10T04:41:25;10.60;99.90
44170;DHT22;29836;52.286;9.576;2023-05-10T04:43:51;10.60;99.90
44170;DHT22;29836;52.286;9.576;2023-05-10T04:46:16;10.50;99.90
44170;DHT22;29836;52.286;9.576;2023-05-10T04:48:42;10.40;99.90
44170;DHT22;29836;52.286;9.576;2023-05-10T04:51:08;10.30;99.90
44170;DHT22;29836;52.286;9.576;2023-05-10T04:53:33;10.30;99.90
44170;DHT22;29836;52.286;9.576;2023-05-10T04:55:59;10.30;99.90
44170;DHT22;29836;52.286;9.576;2023-05-10T04:58:24;10.30;99.90
44170;DHT22;29836;52.286;9.576;2023-05-10T05:00:50;10.20;99.90
44170;DHT22;29836;52.286;9.576;2023-05-10T05:03:15;10.20;99.90
44170;DHT22;29836;52.286;9.576;2023-05-10T05:05:41;10.20;99.90
44170;DHT22;29836;52.286;9.576;2023-05-10T05:08:06;10.30;99.90
44170;DHT22;29836;52.286;9.576;2023-05-10T05:10:32;10.30;99.90
44170;DHT22;29836;52.286;9.576;2023-05-10T05:12:57;10.40;99.90
44170;DHT22;29836;52.286;9.576;2023-05-10T05:15:23;10.40;99.90
44170;DHT22;29836;52.286;9.576;2023-05-10T05:17:48;10.50;99.90
44170;DHT22;29836;52.286;9.576;2023-05-10T05:20:14;10.60;99.90
44170;DHT22;29836;52.286;9.576;2023-05-10T05:22:39;10.60;99.90
44170;DHT22;29836;52.286;9.576;2023-05-10T05:25:06;10.70;99.90
44170;DHT22;29836;52.286;9.576;2023-05-10T05:27:32;10.80;99.90
44170;DHT22;29836;52.286;9.576;2023-05-10T05:29:58;10.80;99.90
44170;DHT22;29836;52.286;9.576;2023-05-10T05:32:24;10.90;99.90
44170;DHT22;29836;52.286;9.576;2023-05-10T05:34:50;10.90;99.90
44170;DHT22;29836;52.286;9.576;2023-05-10T05:37:16;10.90;99.90
44170;DHT22;29836;52.286;9.576;2023-05-10T05:39:42;10.90;99.90
44170;DHT22;29836;52.286;9.576;2023-05-10T05:42:09;10.90;99.90
44170;DHT22;29836;52.286;9.576;2023-05-10T05:44:35;10.90;99.90
44170;DHT22;29836;52.286;9.576;2023-05-10T05:47:00;10.90;99.90
44170;DHT22;29836;52.286;9.576;2023-05-10T05:49:26;10.90;99.90
44170;DHT22;29836;52.286;9.576;2023-05-10T05:51:51;10.90;99.90
44170;DHT22;29836;52.286;9.576;2023-05-10T05:54:17;11.00;99.90
44170;DHT22;29836;52.286;9.576;2023-05-10T05:56:42;11.00;99.90
44170;DHT22;29836;52.286;9.576;2023-05-10T05:59:09;11.00;99.90
44170;DHT22;29836;52.286;9.576;2023-05-10T06:01:35;11.00;99.90
44170;DHT22;29836;52.286;9.576;2023-05-10T06:04:00;11.00;99.90
44170;DHT22;29836;52.286;9.576;2023-05-10T06:06:26;11.10;99.90
44170;DHT22;29836;52.286;9.576;2023-05-10T06:08:52;11.10;99.90
44170;DHT22;29836;52.286;9.576;2023-05-10T06:11:17;11.10;99.90
44170;DHT22;29836;52.286;9.576;2023-05-10T06:13:43;11.20;99.90
44170;DHT22;29836;52.286;9.576;2023-05-10T06:16:08;11.20;99.90
44170;DHT22;29836;52.286;9.576;2023-05-10T06:18:34;11.30;99.90
44170;DHT22;29836;52.286;9.576;2023-05-10T06:21:00;11.50;99.90
44170;DHT22;29836;52.286;9.576;2023-05-10T06:23:25;11.50;99.90
44170;DHT22;29836;52.286;9.576;2023-05-10T06:25:52;11.60;99.90
44170;DHT22;29836;52.286;9.576;2023-05-10T06:28:17;11.70;99.90
44170;DHT22;29836;52.286;9.576;2023-05-10T06:30:43;11.70;99.90
44170;DHT22;29836;52.286;9.576;2023-05-10T06:33:08;11.90;99.90
44170;DHT22;29836;52.286;9.576;2023-05-10T06:35:34;11.90;99.90
44170;DHT22;29836;52.286;9.576;2023-05-10T06:37:59;11.90;99.90
44170;DHT22;29836;52.286;9.576;2023-05-10T06:40:25;12.00;99.90
44170;DHT22;29836;52.286;9.576;2023-05-10T06:42:51;11.90;99.90
44170;DHT22;29836;52.286;9.576;2023-05-10T06:45:17;12.00;99.90
44170;DHT22;29836;52.286;9.576;2023-05-10T06:47:43;12.00;99.90
44170;DHT22;29836;52.286;9.576;2023-05-10T06:50:09;12.10;99.90
44170;DHT22;29836;52.286;9.576;2023-05-10T06:52:35;12.20;99.90
44170;DHT22;29836;52.286;9.576;2023-05-10T06:55:01;12.10;99.90
44170;DHT22;29836;52.286;9.576;2023-05-10T06:57:27;12.10;99.90
44170;DHT22;29836;52.286;9.576;2023-05-10T06:59:52;12.10;99.90
44170;DHT22;29836;52.286;9.576;2023-05-10T07:02:18;11.90;99.90
44170;DHT22;29836;52.286;9.576;2023-05-10T07:04:43;11.90;99.90
44170;DHT22;29836;52.286;9.576;2023-05-10T07:07:09;12.00;99.90
44170;DHT22;29836;52.286;9.576;2023-05-10T07:09:34;12.00;99.90
44170;DHT22;29836;52.286;9.576;2023-05-10T07:12:00;11.90;99.90
44170;DHT22;29836;52.286;9.576;2023-05-10T07:14:27;12.00;99.90
44170;DHT22;29836;52.286;9.576;2023-05-10T07:16:52;12.00;99.90
44170;DHT22;29836;52.286;9.576;2023-05-10T07:19:18;12.00;99.90
44170;DHT22;29836;52.286;9.576;2023-05-10T07:21:43;12.10;99.90
44170;DHT22;29836;52.286;9.576;2023-05-10T07:24:09;12.20;99.90
44170;DHT22;29836;52.286;9.576;2023-05-10T07:26:34;12.20;99.90
44170;DHT22;29836;52.286;9.576;2023-05-10T07:29:00;12.30;99.90
44170;DHT22;29836;52.286;9.576;2023-05-10T07:31:26;12.40;99.90
44170;DHT22;29836;52.286;9.576;2023-05-10T07:33:51;12.40;99.90
44170;DHT22;29836;52.286;9.576;2023-05-10T07:36:17;12.40;99.90
44170;DHT22;29836;52.286;9.576;2023-05-10T07:38:42;12.40;99.90
44170;DHT22;29836;52.286;9.576;2023-05-10T07:41:08;12.50;99.90
44170;DHT22;29836;52.286;9.576;2023-05-10T07:43:33;12.50;99.90
44170;DHT22;29836;52.286;9.576;2023-05-10T07:45:59;12.50;99.90
44170;DHT22;29836;52.286;9.576;2023-05-10T07:48:25;12.60;99.90
44170;DHT22;29836;52.286;9.576;2023-05-10T07:50:51;12.70;99.90
44170;DHT22;29836;52.286;9.576;2023-05-10T07:53:16;12.70;99.90
44170;DHT22;29836;52.286;9.576;2023-05-10T07:55:43;12.80;99.90
44170;DHT22;29836;52.286;9.576;2023-05-10T07:58:09;12.80;99.90
44170;DHT22;29836;52.286;9.576;2023-05-10T08:00:34;12.90;99.90
44170;DHT22;29836;52.286;9.576;2023-05-10T08:03:00;12.90;99.90
44170;DHT22;29836;52.286;9.576;2023-05-10T08:05:26;13.10;99.90
44170;DHT22;29836;52.286;9.576;2023-05-10T08:07:51;13.20;99.90
44170;DHT22;29836;52.286;9.576;2023-05-10T08:10:17;13.20;99.90
44170;DHT22;29836;52.286;9.576;2023-05-10T08:12:42;13.20;99.90
44170;DHT22;29836;52.286;9.576;2023-05-10T08:15:08;13.30;99.90
44170;DHT22;29836;52.286;9.576;2023-05-10T08:17:34;13.40;99.90
44170;DHT22;29836;52.286;9.576;2023-05-10T08:19:59;13.50;99.90
44170;DHT22;29836;52.286;9.576;2023-05-10T08:22:25;13.60;99.90
44170;DHT22;29836;52.286;9.576;2023-05-10T08:24:51;13.50;99.90
44170;DHT22;29836;52.286;9.576;2023-05-10T08:27:16;13.50;99.90
44170;DHT22;29836;52.286;9.576;2023-05-10T08:29:42;13.50;99.90
44170;DHT22;29836;52.286;9.576;2023-05-10T08:32:07;13.50;99.90
44170;DHT22;29836;52.286;9.576;2023-05-10T08:34:33;13.60;99.90
44170;DHT22;29836;52.286;9.576;2023-05-10T08:36:58;13.60;99.90
44170;DHT22;29836;52.286;9.576;2023-05-10T08:39:24;13.70;99.90
44170;DHT22;29836;52.286;9.576;2023-05-10T08:41:51;13.80;99.90
44170;DHT22;29836;52.286;9.576;2023-05-10T08:44:16;13.70;99.90
44170;DHT22;29836;52.286;9.576;2023-05-10T08:46:46;13.80;99.90
44170;DHT22;29836;52.286;9.576;2023-05-10T08:49:16;13.70;99.90
44170;DHT22;29836;52.286;9.576;2023-05-10T08:51:47;13.90;99.90
44170;DHT22;29836;52.286;9.576;2023-05-10T08:54:14;13.80;99.90
44170;DHT22;29836;52.286;9.576;2023-05-10T08:56:41;13.80;99.90
44170;DHT22;29836;52.286;9.576;2023-05-10T08:59:06;13.70;99.90
44170;DHT22;29836;52.286;9.576;2023-05-10T09:01:32;13.70;99.90
44170;DHT22;29836;52.286;9.576;2023-05-10T09:04:00;13.60;99.90
44170;DHT22;29836;52.286;9.576;2023-05-10T09:06:25;13.50;99.90
44170;DHT22;29836;52.286;9.576;2023-05-10T09:08:52;13.60;99.90
44170;DHT22;29836;52.286;9.576;2023-05-10T09:11:17;13.60;99.90
44170;DHT22;29836;52.286;9.576;2023-05-10T09:13:47;13.60;99.90
44170;DHT22;29836;52.286;9.576;2023-05-10T09:16:13;13.60;99.90
44170;DHT22;29836;52.286;9.576;2023-05-10T09:18:39;13.60;99.90
44170;DHT22;29836;52.286;9.576;2023-05-10T09:21:05;13.60;99.90
44170;DHT22;29836;52.286;9.576;2023-05-10T09:23:30;13.80;99.90
44170;DHT22;29836;52.286;9.576;2023-05-10T09:26:04;13.90;99.90
44170;DHT22;29836;52.286;9.576;2023-05-10T09:28:50;14.00;99.90
44170;DHT22;29836;52.286;9.576;2023-05-10T09:31:15;14.10;99.90
44170;DHT22;29836;52.286;9.576;2023-05-10T09:33:44;14.20;99.90
44170;DHT22;29836;52.286;9.576;2023-05-10T09:36:11;14.30;99.90
44170;DHT22;29836;52.286;9.576;2023-05-10T09:38:50;14.50;99.90
44170;DHT22;29836;52.286;9.576;2023-05-10T09:41:22;14.60;99.90
44170;DHT22;29836;52.286;9.576;2023-05-10T09:43:48;14.60;99.90
44170;DHT22;29836;52.286;9.576;2023-05-10T09:46:15;14.70;99.90
44170;DHT22;29836;52.286;9.576;2023-05-10T09:48:45;14.90;99.90
44170;DHT22;29836;52.286;9.576;2023-05-10T09:51:19;14.90;99.90
44170;DHT22;29836;52.286;9.576;2023-05-10T09:53:45;14.90;99.90
44170;DHT22;29836;52.286;9.576;2023-05-10T09:56:11;15.00;99.90
44170;DHT22;29836;52.286;9.576;2023-05-10T09:58:37;15.20;99.90
44170;DHT22;29836;52.286;9.576;2023-05-10T10:01:11;15.40;99.90
44170;DHT22;29836;52.286;9.576;2023-05-10T10:03:42;15.40;99.90
44170;DHT22;29836;52.286;9.576;2023-05-10T10:06:07;15.50;99.90
44170;DHT22;29836;52.286;9.576;2023-05-10T10:08:34;15.60;99.90
44170;DHT22;29836;52.286;9.576;2023-05-10T10:10:59;15.80;99.90
44170;DHT22;29836;52.286;9.576;2023-05-10T10:13:25;15.90;99.90
44170;DHT22;29836;52.286;9.576;2023-05-10T10:15:52;15.90;99.90
44170;DHT22;29836;52.286;9.576;2023-05-10T10:18:19;15.90;99.90
44170;DHT22;29836;52.286;9.576;2023-05-10T10:20:49;15.90;99.90
44170;DHT22;29836;52.286;9.576;2023-05-10T10:23:15;15.90;99.90
44170;DHT22;29836;52.286;9.576;2023-05-10T10:25:40;15.90;99.90
44170;DHT22;29836;52.286;9.576;2023-05-10T10:28:12;15.90;99.90
44170;DHT22;29836;52.286;9.576;2023-05-10T10:30:45;16.00;99.90
44170;DHT22;29836;52.286;9.576;2023-05-10T10:36:01;16.10;99.90
44170;DHT22;29836;52.286;9.576;2023-05-10T10:38:55;16.10;99.90
44170;DHT22;29836;52.286;9.576;2023-05-10T10:41:35;16.30;99.90
44170;DHT22;29836;52.286;9.576;2023-05-10T10:47:07;17.20;99.90
44170;DHT22;29836;52.286;9.576;2023-05-10T10:52:40;18.50;99.90
44170;DHT22;29836;52.286;9.576;2023-05-10T10:55:11;18.90;99.90
44170;DHT22;29836;52.286;9.576;2023-05-10T10:57:49;19.10;99.90
44170;DHT22;29836;52.286;9.576;2023-05-10T11:00:32;18.90;99.90
44170;DHT22;29836;52.286;9.576;2023-05-10T11:03:10;18.70;99.90
44170;DHT22;29836;52.286;9.576;2023-05-10T11:05:48;18.40;99.90
44170;DHT22;29836;52.286;9.576;2023-05-10T11:08:29;18.10;99.90
44170;DHT22;29836;52.286;9.576;2023-05-10T11:11:02;18.00;99.90
44170;DHT22;29836;52.286;9.576;2023-05-10T11:13:44;18.30;99.90
44170;DHT22;29836;52.286;9.576;2023-05-10T11:16:15;18.60;99.90
44170;DHT22;29836;52.286;9.576;2023-05-10T11:18:53;18.90;99.90
44170;DHT22;29836;52.286;9.576;2023-05-10T11:21:19;20.10;99.90
44170;DHT22;29836;52.286;9.576;2023-05-10T11:23:57;20.50;99.90
44170;DHT22;29836;52.286;9.576;2023-05-10T11:26:34;20.90;99.90
44170;DHT22;29836;52.286;9.576;2023-05-10T11:29:00;20.90;99.90
44170;DHT22;29836;52.286;9.576;2023-05-10T11:31:28;20.80;99.90
44170;DHT22;29836;52.286;9.576;2023-05-10T11:33:58;20.40;99.90
44170;DHT22;29836;52.286;9.576;2023-05-10T11:36:28;20.00;99.90
44170;DHT22;29836;52.286;9.576;2023-05-10T11:38:55;19.60;99.90
44170;DHT22;29836;52.286;9.576;2023-05-10T11:41:22;19.00;99.90
44170;DHT22;29836;52.286;9.576;2023-05-10T11:43:50;18.80;99.90
44170;DHT22;29836;52.286;9.576;2023-05-10T11:46:18;18.60;99.90
44170;DHT22;29836;52.286;9.576;2023-05-10T11:48:47;18.40;99.90
44170;DHT22;29836;52.286;9.576;2023-05-10T11:51:12;18.40;99.90
44170;DHT22;29836;52.286;9.576;2023-05-10T11:53:38;18.50;99.90
44170;DHT22;29836;52.286;9.576;2023-05-10T11:56:07;18.90;99.90
44170;DHT22;29836;52.286;9.576;2023-05-10T11:58:33;19.30;99.90
44170;DHT22;29836;52.286;9.576;2023-05-10T12:00:59;19.60;99.90
44170;DHT22;29836;52.286;9.576;2023-05-10T12:03:26;19.90;99.90
44170;DHT22;29836;52.286;9.576;2023-05-10T12:05:52;19.80;99.90
44170;DHT22;29836;52.286;9.576;2023-05-10T12:08:21;19.60;99.90
44170;DHT22;29836;52.286;9.576;2023-05-10T12:10:47;19.40;99.90
44170;DHT22;29836;52.286;9.576;2023-05-10T12:13:14;19.40;99.90
44170;DHT22;29836;52.286;9.576;2023-05-10T12:15:41;19.90;99.90
44170;DHT22;29836;52.286;9.576;2023-05-10T12:18:11;20.80;99.90
44170;DHT22;29836;52.286;9.576;2023-05-10T12:20:37;21.00;99.90
44170;DHT22;29836;52.286;9.576;2023-05-10T12:23:03;21.80;99.90
44170;DHT22;29836;52.286;9.576;2023-05-10T12:25:37;22.50;99.60
44170;DHT22;29836;52.286;9.576;2023-05-10T12:28:04;22.70;99.40
44170;DHT22;29836;52.286;9.576;2023-05-10T12:30:32;23.10;97.00
44170;DHT22;29836;52.286;9.576;2023-05-10T12:33:11;23.30;98.00
44170;DHT22;29836;52.286;9.576;2023-05-10T12:35:52;23.40;95.90
44170;DHT22;29836;52.286;9.576;2023-05-10T12:38:45;23.30;94.40
44170;DHT22;29836;52.286;9.576;2023-05-10T12:41:15;22.80;95.60
44170;DHT22;29836;52.286;9.576;2023-05-10T12:43:41;22.20;96.50
44170;DHT22;29836;52.286;9.576;2023-05-10T12:46:14;21.70;96.20
44170;DHT22;29836;52.286;9.576;2023-05-10T12:48:41;21.10;97.50
44170;DHT22;29836;52.286;9.576;2023-05-10T12:51:08;20.40;99.70
44170;DHT22;29836;52.286;9.576;2023-05-10T12:53:41;19.60;99.90
44170;DHT22;29836;52.286;9.576;2023-05-10T12:56:06;19.10;99.90
44170;DHT22;29836;52.286;9.576;2023-05-10T12:58:32;19.30;99.90
44170;DHT22;29836;52.286;9.576;2023-05-10T13:00:58;19.80;99.90
44170;DHT22;29836;52.286;9.576;2023-05-10T13:03:24;20.30;99.90
44170;DHT22;29836;52.286;9.576;2023-05-10T13:05:50;20.90;99.90
44170;DHT22;29836;52.286;9.576;2023-05-10T13:08:15;21.40;99.90
44170;DHT22;29836;52.286;9.576;2023-05-10T13:10:41;22.30;99.90
44170;DHT22;29836;52.286;9.576;2023-05-10T13:13:06;22.50;99.40
44170;DHT22;29836;52.286;9.576;2023-05-10T13:15:33;22.30;98.00
44170;DHT22;29836;52.286;9.576;2023-05-10T13:17:58;22.50;99.30
44170;DHT22;29836;52.286;9.576;2023-05-10T13:20:24;22.40;97.30
44170;DHT22;29836;52.286;9.576;2023-05-10T13:22:50;22.40;97.70
44170;DHT22;29836;52.286;9.576;2023-05-10T13:25:15;22.70;96.80
44170;DHT22;29836;52.286;9.576;2023-05-10T13:27:41;23.10;95.80
44170;DHT22;29836;52.286;9.576;2023-05-10T13:30:07;23.20;94.10
44170;DHT22;29836;52.286;9.576;2023-05-10T13:32:33;22.70;94.60
44170;DHT22;29836;52.286;9.576;2023-05-10T13:34:59;22.10;95.50
44170;DHT22;29836;52.286;9.576;2023-05-10T13:37:24;21.80;97.20
44170;DHT22;29836;52.286;9.576;2023-05-10T13:39:50;21.50;97.30
44170;DHT22;29836;52.286;9.576;2023-05-10T13:42:15;21.40;98.00
44170;DHT22;29836;52.286;9.576;2023-05-10T13:44:41;21.40;98.10
44170;DHT22;29836;52.286;9.576;2023-05-10T13:47:06;21.20;98.00
44170;DHT22;29836;52.286;9.576;2023-05-10T13:49:32;21.20;98.90
44170;DHT22;29836;52.286;9.576;2023-05-10T13:51:59;20.90;98.90
44170;DHT22;29836;52.286;9.576;2023-05-10T13:54:26;21.00;99.30
44170;DHT22;29836;52.286;9.576;2023-05-10T13:56:54;21.00;99.20
44170;DHT22;29836;52.286;9.576;2023-05-10T13:59:20;21.10;98.90
44170;DHT22;29836;52.286;9.576;2023-05-10T14:01:45;20.90;99.10
44170;DHT22;29836;52.286;9.576;2023-05-10T14:04:11;21.20;99.30
44170;DHT22;29836;52.286;9.576;2023-05-10T14:06:36;21.70;98.40
44170;DHT22;29836;52.286;9.576;2023-05-10T14:09:03;22.20;96.60
44170;DHT22;29836;52.286;9.576;2023-05-10T14:11:28;22.80;95.60
44170;DHT22;29836;52.286;9.576;2023-05-10T14:13:54;23.00;95.30
44170;DHT22;29836;52.286;9.576;2023-05-10T14:16:19;23.50;94.60
44170;DHT22;29836;52.286;9.576;2023-05-10T14:18:45;23.20;93.90
44170;DHT22;29836;52.286;9.576;2023-05-10T14:21:11;23.10;92.90
44170;DHT22;29836;52.286;9.576;2023-05-10T14:23:36;22.80;93.50
44170;DHT22;29836;52.286;9.576;2023-05-10T14:26:02;22.50;93.90
44170;DHT22;29836;52.286;9.576;2023-05-10T14:28:28;21.70;97.60
44170;DHT22;29836;52.286;9.576;2023-05-10T14:30:53;20.90;99.40
44170;DHT22;29836;52.286;9.576;2023-05-10T14:33:19;20.20;99.90
44170;DHT22;29836;52.286;9.576;2023-05-10T14:35:46;19.50;99.90
44170;DHT22;29836;52.286;9.576;2023-05-10T14:38:12;19.00;99.90
44170;DHT22;29836;52.286;9.576;2023-05-10T14:40:37;18.70;99.90
44170;DHT22;29836;52.286;9.576;2023-05-10T14:43:03;18.50;99.90
44170;DHT22;29836;52.286;9.576;2023-05-10T14:45:28;18.40;99.90
44170;DHT22;29836;52.286;9.576;2023-05-10T14:47:54;18.30;99.90
44170;DHT22;29836;52.286;9.576;2023-05-10T14:50:20;18.20;99.90
44170;DHT22;29836;52.286;9.576;2023-05-10T14:52:46;18.20;99.90
44170;DHT22;29836;52.286;9.576;2023-05-10T14:55:12;18.10;99.90
44170;DHT22;29836;52.286;9.576;2023-05-10T14:57:38;17.80;99.90
44170;DHT22;29836;52.286;9.576;2023-05-10T15:00:04;17.60;99.90
44170;DHT22;29836;52.286;9.576;2023-05-10T15:02:33;17.30;99.90
44170;DHT22;29836;52.286;9.576;2023-05-10T15:04:58;17.00;99.90
44170;DHT22;29836;52.286;9.576;2023-05-10T15:07:24;16.80;99.90
44170;DHT22;29836;52.286;9.576;2023-05-10T15:09:50;16.60;99.90
44170;DHT22;29836;52.286;9.576;2023-05-10T15:12:17;16.30;99.90
44170;DHT22;29836;52.286;9.576;2023-05-10T15:14:44;15.90;99.90
44170;DHT22;29836;52.286;9.576;2023-05-10T15:17:10;15.40;99.90
44170;DHT22;29836;52.286;9.576;2023-05-10T15:19:36;15.10;99.90
44170;DHT22;29836;52.286;9.576;2023-05-10T15:22:02;14.90;99.90
44170;DHT22;29836;52.286;9.576;2023-05-10T15:24:28;14.80;99.90
44170;DHT22;29836;52.286;9.576;2023-05-10T15:26:54;14.60;99.90
44170;DHT22;29836;52.286;9.576;2023-05-10T15:29:19;14.50;99.90
44170;DHT22;29836;52.286;9.576;2023-05-10T15:31:48;14.40;99.90
44170;DHT22;29836;52.286;9.576;2023-05-10T15:34:15;14.30;99.90
44170;DHT22;29836;52.286;9.576;2023-05-10T15:36:41;14.30;99.90
44170;DHT22;29836;52.286;9.576;2023-05-10T15:39:06;14.30;99.90
44170;DHT22;29836;52.286;9.576;2023-05-10T15:41:32;14.30;99.90
44170;DHT22;29836;52.286;9.576;2023-05-10T15:43:58;14.30;99.90
44170;DHT22;29836;52.286;9.576;2023-05-10T15:46:30;14.30;99.90
44170;DHT22;29836;52.286;9.576;2023-05-10T15:48:57;14.30;99.90
44170;DHT22;29836;52.286;9.576;2023-05-10T15:51:22;14.40;99.90
44170;DHT22;29836;52.286;9.576;2023-05-10T15:53:48;14.40;99.90